Quick Links (Output Below):   Max & Min Temps   /   Climate Reports   /   Zone Forecasts
River Forecasts   /   Forestry Forecasts   /   Aviation Forecasts   /   Radars   /   Features

Terminal Aerodrome Forecast (Texarkana)

Pick a Site:
Arkadelphia | El Dorado | Fayetteville | Fort Smith | Harrison | Highfill | Hot Springs | Jonesboro
Little Rock | Monticello | Mountain Home | Pine Bluff | Texarkana
 Forecast 

KTXK 311623Z 3116/0112 20009KT P6SM BKN020 OVC060
     FM311800 21010KT P6SM BKN035 OVC250
     FM010000 VRB03KT P6SM BKN120
     FM010900 VRB03KT P6SM BKN050 BKN120=


 Latest METARs (Observations) 
How to Decode METARs
16Z KTXK 311553Z 21009KT 10SM FEW022 BKN060 22/17 A3003 RMK AO2 SLP166
         T02220167
         
15Z KTXK 311453Z 22012KT 10SM CLR 22/16 A3002 RMK AO2 SLP163 T02170161
         50003
         
14Z KTXK 311353Z 21010KT 10SM CLR 19/17 A3002 RMK AO2 SLP163
         T01940167
         
13Z KTXK 311253Z 21008KT 10SM BKN042 18/16 A3002 RMK AO2 SLP163
         T01780161
         
12Z KTXK 311153Z 21007KT 10SM OVC050 18/16 A3001 RMK AO2 SLP160
         T01780161 10194 20178 53001
         
11Z KTXK 311053Z 20009KT 10SM BKN045 18/16 A3001 RMK AO2 SLP158
         T01780161
         
10Z KTXK 310953Z 22007KT 10SM CLR 18/16 A3000 RMK AO2 SLP156
         T01780161
         
09Z KTXK 310853Z 21005KT 10SM FEW042 18/16 A3001 RMK AO2 SLP158
         T01780161 56014
         
08Z KTXK 310753Z 19006KT 10SM BKN046 18/16 A3002 RMK AO2 SLP163
         T01830161
         
07Z KTXK 310653Z 18004KT 10SM BKN049 19/17 A3003 RMK AO2 SLP166
         T01890167
         
***** Today's Observations (Above) *****


Back to Main Page
http://www.srh.noaa.gov/lzk/qfcst.php

USA.gov is the U.S. government's official web portal to all federal, state and local government web resources and services.